Aviation Digital Data Service (ADDS)

Output produced by METARs form (2116 UTC 20 August 2019)
found at http://www.aviationweather.gov/metar/data/
 
METAR text: EGPF 202050Z AUTO VRB03KT 9999 BKN049 13/11 Q1021
Conditions at: EGPF (GLASGOW AIRPORT , GB) observed 2050 UTC 20 August 2019
Temperature: 13.0°C (55°F)
Dewpoint: 11.0°C (52°F) [RH = 88%]
Pressure (altimeter): 30.15 inches Hg (1021.0 mb)
Winds: variable direction winds at 3 MPH (3 knots; 1.5 m/s)
Visibility: 6 or more miles (10+ km)
Ceiling: 4900 feet AGL
Clouds: broken clouds at 4900 feet AGL
Weather: no significant weather observed at this time

METAR text: EGPF 202020Z AUTO 21006KT 9999 NCD 13/11 Q1021
Conditions at: EGPF (GLASGOW AIRPORT , GB) observed 2020 UTC 20 August 2019
Temperature: 13.0°C (55°F)
Dewpoint: 11.0°C (52°F) [RH = 88%]
Pressure (altimeter): 30.15 inches Hg (1021.0 mb)
Winds: from the SSW (210 degrees) at 7 MPH (6 knots; 3.1 m/s)
Visibility: 6 or more miles (10+ km)
Ceiling: at least 12,000 feet AGL
Clouds: sky clear below 12,000 feet AGL
Weather: no significant weather observed at this time

METAR text: EGPF 201950Z AUTO VRB03KT 9999 FEW049 13/11 Q1021
Conditions at: EGPF (GLASGOW AIRPORT , GB) observed 1950 UTC 20 August 2019
Temperature: 13.0°C (55°F)
Dewpoint: 11.0°C (52°F) [RH = 88%]
Pressure (altimeter): 30.15 inches Hg (1021.0 mb)
Winds: variable direction winds at 3 MPH (3 knots; 1.5 m/s)
Visibility: 6 or more miles (10+ km)
Ceiling: at least 12,000 feet AGL
Clouds: few clouds at 4900 feet AGL
Weather: no significant weather observed at this time

METAR text: EGPF 201920Z AUTO 22008KT 9999 NCD 14/11 Q1020
Conditions at: EGPF (GLASGOW AIRPORT , GB) observed 1920 UTC 20 August 2019
Temperature: 14.0°C (57°F)
Dewpoint: 11.0°C (52°F) [RH = 82%]
Pressure (altimeter): 30.12 inches Hg (1020.0 mb)
Winds: from the SW (220 degrees) at 9 MPH (8 knots; 4.1 m/s)
Visibility: 6 or more miles (10+ km)
Ceiling: at least 12,000 feet AGL
Clouds: sky clear below 12,000 feet AGL
Weather: no significant weather observed at this time

METAR text: EGPF 201850Z AUTO 22009KT 9999 NCD 15/11 Q1020
Conditions at: EGPF (GLASGOW AIRPORT , GB) observed 1850 UTC 20 August 2019
Temperature: 15.0°C (59°F)
Dewpoint: 11.0°C (52°F) [RH = 77%]
Pressure (altimeter): 30.12 inches Hg (1020.0 mb)
Winds: from the SW (220 degrees) at 10 MPH (9 knots; 4.6 m/s)
Visibility: 6 or more miles (10+ km)
Ceiling: at least 12,000 feet AGL
Clouds: sky clear below 12,000 feet AGL
Weather: no significant weather observed at this time

METAR text: EGPF 201820Z AUTO 22010KT 9999 NCD 15/10 Q1020
Conditions at: EGPF (GLASGOW AIRPORT , GB) observed 1820 UTC 20 August 2019
Temperature: 15.0°C (59°F)
Dewpoint: 10.0°C (50°F) [RH = 72%]
Pressure (altimeter): 30.12 inches Hg (1020.0 mb)
Winds: from the SW (220 degrees) at 12 MPH (10 knots; 5.1 m/s)
Visibility: 6 or more miles (10+ km)
Ceiling: at least 12,000 feet AGL
Clouds: sky clear below 12,000 feet AGL
Weather: no significant weather observed at this time

METAR text: EGPF 201750Z AUTO 22012KT 9999 NCD 16/09 Q1020
Conditions at: EGPF (GLASGOW AIRPORT , GB) observed 1750 UTC 20 August 2019
Temperature: 16.0°C (61°F)
Dewpoint: 9.0°C (48°F) [RH = 63%]
Pressure (altimeter): 30.12 inches Hg (1020.0 mb)
Winds: from the SW (220 degrees) at 14 MPH (12 knots; 6.2 m/s)
Visibility: 6 or more miles (10+ km)
Ceiling: at least 12,000 feet AGL
Clouds: sky clear below 12,000 feet AGL
Weather: no significant weather observed at this time

METAR text: EGPF 201720Z AUTO 22012KT 9999 NCD 16/09 Q1020
Conditions at: EGPF (GLASGOW AIRPORT , GB) observed 1720 UTC 20 August 2019
Temperature: 16.0°C (61°F)
Dewpoint: 9.0°C (48°F) [RH = 63%]
Pressure (altimeter): 30.12 inches Hg (1020.0 mb)
Winds: from the SW (220 degrees) at 14 MPH (12 knots; 6.2 m/s)
Visibility: 6 or more miles (10+ km)
Ceiling: at least 12,000 feet AGL
Clouds: sky clear below 12,000 feet AGL
Weather: no significant weather observed at this time

METAR text: EGPF 201650Z AUTO 22013KT 9999 NCD 17/09 Q1020
Conditions at: EGPF (GLASGOW AIRPORT , GB) observed 1650 UTC 20 August 2019
Temperature: 17.0°C (63°F)
Dewpoint: 9.0°C (48°F) [RH = 59%]
Pressure (altimeter): 30.12 inches Hg (1020.0 mb)
Winds: from the SW (220 degrees) at 15 MPH (13 knots; 6.7 m/s)
Visibility: 6 or more miles (10+ km)
Ceiling: at least 12,000 feet AGL
Clouds: sky clear below 12,000 feet AGL
Weather: no significant weather observed at this time

METAR text: EGPF 201620Z AUTO 22011KT 9999 FEW036 17/10 Q1020
Conditions at: EGPF (GLASGOW AIRPORT , GB) observed 1620 UTC 20 August 2019
Temperature: 17.0°C (63°F)
Dewpoint: 10.0°C (50°F) [RH = 63%]
Pressure (altimeter): 30.12 inches Hg (1020.0 mb)
Winds: from the SW (220 degrees) at 13 MPH (11 knots; 5.7 m/s)
Visibility: 6 or more miles (10+ km)
Ceiling: at least 12,000 feet AGL
Clouds: few clouds at 3600 feet AGL
Weather: no significant weather observed at this time

METAR text: EGPF 201550Z AUTO 24012KT 9999 FEW034 SCT040 17/09 Q1019
Conditions at: EGPF (GLASGOW AIRPORT , GB) observed 1550 UTC 20 August 2019
Temperature: 17.0°C (63°F)
Dewpoint: 9.0°C (48°F) [RH = 59%]
Pressure (altimeter): 30.09 inches Hg (1019.0 mb)
Winds: from the WSW (240 degrees) at 14 MPH (12 knots; 6.2 m/s)
Visibility: 6 or more miles (10+ km)
Ceiling: at least 12,000 feet AGL
Clouds: few clouds at 3400 feet AGL
scattered clouds at 4000 feet AGL
Weather: no significant weather observed at this time

METAR text: EGPF 201520Z AUTO 25010KT 9999 BKN029 16/10 Q1019
Conditions at: EGPF (GLASGOW AIRPORT , GB) observed 1520 UTC 20 August 2019
Temperature: 16.0°C (61°F)
Dewpoint: 10.0°C (50°F) [RH = 68%]
Pressure (altimeter): 30.09 inches Hg (1019.0 mb)
Winds: from the WSW (250 degrees) at 12 MPH (10 knots; 5.1 m/s)
Visibility: 6 or more miles (10+ km)
Ceiling: 2900 feet AGL
Clouds: broken clouds at 2900 feet AGL
Weather: no significant weather observed at this time

METAR text: EGPF 201450Z AUTO 24010KT 210V280 9999 SCT031 BKN041 16/11 Q1019
Conditions at: EGPF (GLASGOW AIRPORT , GB) observed 1450 UTC 20 August 2019
Temperature: 16.0°C (61°F)
Dewpoint: 11.0°C (52°F) [RH = 72%]
Pressure (altimeter): 30.09 inches Hg (1019.0 mb)
Winds: from the WSW (240 degrees) at 12 MPH (10 knots; 5.1 m/s)
Visibility: 6 or more miles (10+ km)
Ceiling: 4100 feet AGL
Clouds: scattered clouds at 3100 feet AGL
broken clouds at 4100 feet AGL
Weather: no significant weather observed at this time

METAR text: EGPF 201420Z AUTO 24010KT 9999 FEW031 SCT038 16/10 Q1019
Conditions at: EGPF (GLASGOW AIRPORT , GB) observed 1420 UTC 20 August 2019
Temperature: 16.0°C (61°F)
Dewpoint: 10.0°C (50°F) [RH = 68%]
Pressure (altimeter): 30.09 inches Hg (1019.0 mb)
Winds: from the WSW (240 degrees) at 12 MPH (10 knots; 5.1 m/s)
Visibility: 6 or more miles (10+ km)
Ceiling: at least 12,000 feet AGL
Clouds: few clouds at 3100 feet AGL
scattered clouds at 3800 feet AGL
Weather: no significant weather observed at this time

METAR text: EGPF 201350Z AUTO 26012KT 9999 FEW035/// SCT042/// //////CB 17/10 Q1019
Conditions at: EGPF (GLASGOW AIRPORT , GB) observed 1350 UTC 20 August 2019
Temperature: 17.0°C (63°F)
Dewpoint: 10.0°C (50°F) [RH = 63%]
Pressure (altimeter): 30.09 inches Hg (1019.0 mb)
Winds: from the W (260 degrees) at 14 MPH (12 knots; 6.2 m/s)
Visibility: 6 or more miles (10+ km)
Ceiling: at least 12,000 feet AGL
Clouds: few clouds at 3500 feet AGL
scattered clouds at 4200 feet AGL
Weather: no significant weather observed at this time

METAR text: EGPF 201320Z AUTO 27009KT 9999 BKN032/// BKN043/// //////TCU 17/10 Q1019
Conditions at: EGPF (GLASGOW AIRPORT , GB) observed 1320 UTC 20 August 2019
Temperature: 17.0°C (63°F)
Dewpoint: 10.0°C (50°F) [RH = 63%]
Pressure (altimeter): 30.09 inches Hg (1019.0 mb)
Winds: from the W (270 degrees) at 10 MPH (9 knots; 4.6 m/s)
Visibility: 6 or more miles (10+ km)
Ceiling: 3200 feet AGL
Clouds: broken clouds at 3200 feet AGL
broken clouds at 4300 feet AGL
Weather: no significant weather observed at this time

METAR text: EGPF 201250Z AUTO 27009KT 9999 SCT032/// BKN044/// //////CB 16/11 Q1019
Conditions at: EGPF (GLASGOW AIRPORT , GB) observed 1250 UTC 20 August 2019
Temperature: 16.0°C (61°F)
Dewpoint: 11.0°C (52°F) [RH = 72%]
Pressure (altimeter): 30.09 inches Hg (1019.0 mb)
Winds: from the W (270 degrees) at 10 MPH (9 knots; 4.6 m/s)
Visibility: 6 or more miles (10+ km)
Ceiling: 4400 feet AGL
Clouds: scattered clouds at 3200 feet AGL
broken clouds at 4400 feet AGL
Weather: no significant weather observed at this time

METAR text: EGPF 201220Z AUTO 26011KT 9999 SCT024/// BKN042/// //////CB 16/11 Q1018
Conditions at: EGPF (GLASGOW AIRPORT , GB) observed 1220 UTC 20 August 2019
Temperature: 16.0°C (61°F)
Dewpoint: 11.0°C (52°F) [RH = 72%]
Pressure (altimeter): 30.06 inches Hg (1018.0 mb)
Winds: from the W (260 degrees) at 13 MPH (11 knots; 5.7 m/s)
Visibility: 6 or more miles (10+ km)
Ceiling: 4200 feet AGL
Clouds: scattered clouds at 2400 feet AGL
broken clouds at 4200 feet AGL
Weather: no significant weather observed at this time

METAR text: EGPF 201150Z AUTO 31008KT 270V330 9999 BKN021/// BKN035/// BKN047/// //////CB 15/11 Q1018
Conditions at: EGPF (GLASGOW AIRPORT , GB) observed 1150 UTC 20 August 2019
Temperature: 15.0°C (59°F)
Dewpoint: 11.0°C (52°F) [RH = 77%]
Pressure (altimeter): 30.06 inches Hg (1018.0 mb)
Winds: from the NW (310 degrees) at 9 MPH (8 knots; 4.1 m/s)
Visibility: 6 or more miles (10+ km)
Ceiling: 2100 feet AGL
Clouds: broken clouds at 2100 feet AGL
broken clouds at 3500 feet AGL
broken clouds at 4700 feet AGL
Weather: no significant weather observed at this time

METAR text: EGPF 201120Z AUTO 26010KT 9999 SCT022/// //////CB 16/12 Q1018
Conditions at: EGPF (GLASGOW AIRPORT , GB) observed 1120 UTC 20 August 2019
Temperature: 16.0°C (61°F)
Dewpoint: 12.0°C (54°F) [RH = 77%]
Pressure (altimeter): 30.06 inches Hg (1018.0 mb)
Winds: from the W (260 degrees) at 12 MPH (10 knots; 5.1 m/s)
Visibility: 6 or more miles (10+ km)
Ceiling: at least 12,000 feet AGL
Clouds: scattered clouds at 2200 feet AGL
Weather: no significant weather observed at this time

METAR text: EGPF 201050Z AUTO 24011KT 9999 -RA SCT026/// SCT044/// //////CB 16/12 Q1018
Conditions at: EGPF (GLASGOW AIRPORT , GB) observed 1050 UTC 20 August 2019
Temperature: 16.0°C (61°F)
Dewpoint: 12.0°C (54°F) [RH = 77%]
Pressure (altimeter): 30.06 inches Hg (1018.0 mb)
Winds: from the WSW (240 degrees) at 13 MPH (11 knots; 5.7 m/s)
Visibility: 6 or more miles (10+ km)
Ceiling: at least 12,000 feet AGL
Clouds: scattered clouds at 2600 feet AGL
scattered clouds at 4400 feet AGL
Weather: -RA  (light rain)

METAR text: EGPF 201020Z AUTO 25010KT 9999 BKN021/// BKN025/// BKN033/// //////CB 15/12 Q1018
Conditions at: EGPF (GLASGOW AIRPORT , GB) observed 1020 UTC 20 August 2019
Temperature: 15.0°C (59°F)
Dewpoint: 12.0°C (54°F) [RH = 82%]
Pressure (altimeter): 30.06 inches Hg (1018.0 mb)
Winds: from the WSW (250 degrees) at 12 MPH (10 knots; 5.1 m/s)
Visibility: 6 or more miles (10+ km)
Ceiling: 2100 feet AGL
Clouds: broken clouds at 2100 feet AGL
broken clouds at 2500 feet AGL
broken clouds at 3300 feet AGL
Weather: no significant weather observed at this time

METAR text: EGPF 200950Z AUTO VRB02KT 9999 BKN017 BKN023 14/12 Q1017
Conditions at: EGPF (GLASGOW AIRPORT , GB) observed 0950 UTC 20 August 2019
Temperature: 14.0°C (57°F)
Dewpoint: 12.0°C (54°F) [RH = 88%]
Pressure (altimeter): 30.03 inches Hg (1017.0 mb)
Winds: variable direction winds at 2 MPH (2 knots; 1.0 m/s)
Visibility: 6 or more miles (10+ km)
Ceiling: 1700 feet AGL
Clouds: broken clouds at 1700 feet AGL
broken clouds at 2300 feet AGL
Weather: no significant weather observed at this time

METAR text: EGPF 200920Z AUTO 22006KT 9999 BKN016 BKN022 BKN030 14/12 Q1017
Conditions at: EGPF (GLASGOW AIRPORT , GB) observed 0920 UTC 20 August 2019
Temperature: 14.0°C (57°F)
Dewpoint: 12.0°C (54°F) [RH = 88%]
Pressure (altimeter): 30.03 inches Hg (1017.0 mb)
Winds: from the SW (220 degrees) at 7 MPH (6 knots; 3.1 m/s)
Visibility: 6 or more miles (10+ km)
Ceiling: 1600 feet AGL
Clouds: broken clouds at 1600 feet AGL
broken clouds at 2200 feet AGL
broken clouds at 3000 feet AGL
Weather: no significant weather observed at this time

METAR text: EGPF 200850Z AUTO 22007KT 9999 SCT017 BKN024 BKN033 14/12 Q1017
Conditions at: EGPF (GLASGOW AIRPORT , GB) observed 0850 UTC 20 August 2019
Temperature: 14.0°C (57°F)
Dewpoint: 12.0°C (54°F) [RH = 88%]
Pressure (altimeter): 30.03 inches Hg (1017.0 mb)
Winds: from the SW (220 degrees) at 8 MPH (7 knots; 3.6 m/s)
Visibility: 6 or more miles (10+ km)
Ceiling: 2400 feet AGL
Clouds: scattered clouds at 1700 feet AGL
broken clouds at 2400 feet AGL
broken clouds at 3300 feet AGL
Weather: no significant weather observed at this time

METAR text: EGPF 200820Z AUTO VRB03KT 9999 SCT015 BKN019 OVC038 14/11 Q1017
Conditions at: EGPF (GLASGOW AIRPORT , GB) observed 0820 UTC 20 August 2019
Temperature: 14.0°C (57°F)
Dewpoint: 11.0°C (52°F) [RH = 82%]
Pressure (altimeter): 30.03 inches Hg (1017.0 mb)
Winds: variable direction winds at 3 MPH (3 knots; 1.5 m/s)
Visibility: 6 or more miles (10+ km)
Ceiling: 1900 feet AGL
Clouds: scattered clouds at 1500 feet AGL
broken clouds at 1900 feet AGL
overcast cloud deck at 3800 feet AGL
Weather: no significant weather observed at this time

METAR text: EGPF 200750Z AUTO 23004KT 9999 FEW021 BKN025 OVC031 14/11 Q1017
Conditions at: EGPF (GLASGOW AIRPORT , GB) observed 0750 UTC 20 August 2019
Temperature: 14.0°C (57°F)
Dewpoint: 11.0°C (52°F) [RH = 82%]
Pressure (altimeter): 30.03 inches Hg (1017.0 mb)
Winds: from the SW (230 degrees) at 5 MPH (4 knots; 2.1 m/s)
Visibility: 6 or more miles (10+ km)
Ceiling: 2500 feet AGL
Clouds: few clouds at 2100 feet AGL
broken clouds at 2500 feet AGL
overcast cloud deck at 3100 feet AGL
Weather: no significant weather observed at this time

METAR text: EGPF 200720Z AUTO 24005KT 9999 BKN038 13/11 Q1016
Conditions at: EGPF (GLASGOW AIRPORT , GB) observed 0720 UTC 20 August 2019
Temperature: 13.0°C (55°F)
Dewpoint: 11.0°C (52°F) [RH = 88%]
Pressure (altimeter): 30.00 inches Hg (1016.0 mb)
Winds: from the WSW (240 degrees) at 6 MPH (5 knots; 2.6 m/s)
Visibility: 6 or more miles (10+ km)
Ceiling: 3800 feet AGL
Clouds: broken clouds at 3800 feet AGL
Weather: no significant weather observed at this time

METAR text: EGPF 200650Z AUTO 28003KT 9999 BKN036 12/11 Q1016
Conditions at: EGPF (GLASGOW AIRPORT , GB) observed 0650 UTC 20 August 2019
Temperature: 12.0°C (54°F)
Dewpoint: 11.0°C (52°F) [RH = 94%]
Pressure (altimeter): 30.00 inches Hg (1016.0 mb)
Winds: from the W (280 degrees) at 3 MPH (3 knots; 1.5 m/s)
Visibility: 6 or more miles (10+ km)
Ceiling: 3600 feet AGL
Clouds: broken clouds at 3600 feet AGL
Weather: no significant weather observed at this time

METAR text: EGPF 200620Z AUTO 28003KT 9999 BKN034 11/10 Q1016
Conditions at: EGPF (GLASGOW AIRPORT , GB) observed 0620 UTC 20 August 2019
Temperature: 11.0°C (52°F)
Dewpoint: 10.0°C (50°F) [RH = 94%]
Pressure (altimeter): 30.00 inches Hg (1016.0 mb)
Winds: from the W (280 degrees) at 3 MPH (3 knots; 1.5 m/s)
Visibility: 6 or more miles (10+ km)
Ceiling: 3400 feet AGL
Clouds: broken clouds at 3400 feet AGL
Weather: no significant weather observed at this time

METAR text: EGPF 200550Z AUTO VRB02KT 9999 NCD 10/09 Q1015
Conditions at: EGPF (GLASGOW AIRPORT , GB) observed 0550 UTC 20 August 2019
Temperature: 10.0°C (50°F)
Dewpoint: 9.0°C (48°F) [RH = 93%]
Pressure (altimeter): 29.97 inches Hg (1015.0 mb)
Winds: variable direction winds at 2 MPH (2 knots; 1.0 m/s)
Visibility: 6 or more miles (10+ km)
Ceiling: at least 12,000 feet AGL
Clouds: sky clear below 12,000 feet AGL
Weather: no significant weather observed at this time

METAR text: EGPF 200520Z AUTO 25004KT 9999 FEW021 10/09 Q1015
Conditions at: EGPF (GLASGOW AIRPORT , GB) observed 0520 UTC 20 August 2019
Temperature: 10.0°C (50°F)
Dewpoint: 9.0°C (48°F) [RH = 93%]
Pressure (altimeter): 29.97 inches Hg (1015.0 mb)
Winds: from the WSW (250 degrees) at 5 MPH (4 knots; 2.1 m/s)
Visibility: 6 or more miles (10+ km)
Ceiling: at least 12,000 feet AGL
Clouds: few clouds at 2100 feet AGL
Weather: no significant weather observed at this time

METAR text: EGPF 200450Z AUTO 24003KT 9999 NCD 10/09 Q1015
Conditions at: EGPF (GLASGOW AIRPORT , GB) observed 0450 UTC 20 August 2019
Temperature: 10.0°C (50°F)
Dewpoint: 9.0°C (48°F) [RH = 93%]
Pressure (altimeter): 29.97 inches Hg (1015.0 mb)
Winds: from the WSW (240 degrees) at 3 MPH (3 knots; 1.5 m/s)
Visibility: 6 or more miles (10+ km)
Ceiling: at least 12,000 feet AGL
Clouds: sky clear below 12,000 feet AGL
Weather: no significant weather observed at this time

METAR text: EGPF 200420Z AUTO 24004KT 9999 NCD 11/09 Q1014
Conditions at: EGPF (GLASGOW AIRPORT , GB) observed 0420 UTC 20 August 2019
Temperature: 11.0°C (52°F)
Dewpoint: 9.0°C (48°F) [RH = 87%]
Pressure (altimeter): 29.94 inches Hg (1014.0 mb)
Winds: from the WSW (240 degrees) at 5 MPH (4 knots; 2.1 m/s)
Visibility: 6 or more miles (10+ km)
Ceiling: at least 12,000 feet AGL
Clouds: sky clear below 12,000 feet AGL
Weather: no significant weather observed at this time

METAR text: EGPF 200350Z AUTO VRB01KT 9999 NCD 11/10 Q1014
Conditions at: EGPF (GLASGOW AIRPORT , GB) observed 0350 UTC 20 August 2019
Temperature: 11.0°C (52°F)
Dewpoint: 10.0°C (50°F) [RH = 94%]
Pressure (altimeter): 29.94 inches Hg (1014.0 mb)
Winds: variable direction winds at 1 MPH (1 knots; 0.5 m/s)
Visibility: 6 or more miles (10+ km)
Ceiling: at least 12,000 feet AGL
Clouds: sky clear below 12,000 feet AGL
Weather: no significant weather observed at this time

METAR text: EGPF 200320Z AUTO 24002KT 9999 NCD 11/09 Q1014
Conditions at: EGPF (GLASGOW AIRPORT , GB) observed 0320 UTC 20 August 2019
Temperature: 11.0°C (52°F)
Dewpoint: 9.0°C (48°F) [RH = 87%]
Pressure (altimeter): 29.94 inches Hg (1014.0 mb)
Winds: from the WSW (240 degrees) at 2 MPH (2 knots; 1.0 m/s)
Visibility: 6 or more miles (10+ km)
Ceiling: at least 12,000 feet AGL
Clouds: sky clear below 12,000 feet AGL
Weather: no significant weather observed at this time

METAR text: EGPF 200250Z AUTO 25006KT 9999 NCD 12/10 Q1014
Conditions at: EGPF (GLASGOW AIRPORT , GB) observed 0250 UTC 20 August 2019
Temperature: 12.0°C (54°F)
Dewpoint: 10.0°C (50°F) [RH = 88%]
Pressure (altimeter): 29.94 inches Hg (1014.0 mb)
Winds: from the WSW (250 degrees) at 7 MPH (6 knots; 3.1 m/s)
Visibility: 6 or more miles (10+ km)
Ceiling: at least 12,000 feet AGL
Clouds: sky clear below 12,000 feet AGL
Weather: no significant weather observed at this time

METAR text: EGPF 200220Z AUTO 26007KT 9999 NCD 12/10 Q1013
Conditions at: EGPF (GLASGOW AIRPORT , GB) observed 0220 UTC 20 August 2019
Temperature: 12.0°C (54°F)
Dewpoint: 10.0°C (50°F) [RH = 88%]
Pressure (altimeter): 29.91 inches Hg (1013.0 mb)
Winds: from the W (260 degrees) at 8 MPH (7 knots; 3.6 m/s)
Visibility: 6 or more miles (10+ km)
Ceiling: at least 12,000 feet AGL
Clouds: sky clear below 12,000 feet AGL
Weather: no significant weather observed at this time

METAR text: EGPF 200150Z AUTO 25007KT 9999 NCD 12/10 Q1013
Conditions at: EGPF (GLASGOW AIRPORT , GB) observed 0150 UTC 20 August 2019
Temperature: 12.0°C (54°F)
Dewpoint: 10.0°C (50°F) [RH = 88%]
Pressure (altimeter): 29.91 inches Hg (1013.0 mb)
Winds: from the WSW (250 degrees) at 8 MPH (7 knots; 3.6 m/s)
Visibility: 6 or more miles (10+ km)
Ceiling: at least 12,000 feet AGL
Clouds: sky clear below 12,000 feet AGL
Weather: no significant weather observed at this time

METAR text: EGPF 200120Z AUTO 25006KT 9999 NCD 12/10 Q1013
Conditions at: EGPF (GLASGOW AIRPORT , GB) observed 0120 UTC 20 August 2019
Temperature: 12.0°C (54°F)
Dewpoint: 10.0°C (50°F) [RH = 88%]
Pressure (altimeter): 29.91 inches Hg (1013.0 mb)
Winds: from the WSW (250 degrees) at 7 MPH (6 knots; 3.1 m/s)
Visibility: 6 or more miles (10+ km)
Ceiling: at least 12,000 feet AGL
Clouds: sky clear below 12,000 feet AGL
Weather: no significant weather observed at this time

METAR text: EGPF 200050Z AUTO 24006KT 9999 NCD 12/10 Q1013
Conditions at: EGPF (GLASGOW AIRPORT , GB) observed 0050 UTC 20 August 2019
Temperature: 12.0°C (54°F)
Dewpoint: 10.0°C (50°F) [RH = 88%]
Pressure (altimeter): 29.91 inches Hg (1013.0 mb)
Winds: from the WSW (240 degrees) at 7 MPH (6 knots; 3.1 m/s)
Visibility: 6 or more miles (10+ km)
Ceiling: at least 12,000 feet AGL
Clouds: sky clear below 12,000 feet AGL
Weather: no significant weather observed at this time

METAR text: EGPF 200020Z AUTO 23006KT 9999 FEW021 12/10 Q1012
Conditions at: EGPF (GLASGOW AIRPORT , GB) observed 0020 UTC 20 August 2019
Temperature: 12.0°C (54°F)
Dewpoint: 10.0°C (50°F) [RH = 88%]
Pressure (altimeter): 29.88 inches Hg (1012.0 mb)
Winds: from the SW (230 degrees) at 7 MPH (6 knots; 3.1 m/s)
Visibility: 6 or more miles (10+ km)
Ceiling: at least 12,000 feet AGL
Clouds: few clouds at 2100 feet AGL
Weather: no significant weather observed at this time

METAR text: EGPF 192350Z AUTO 24006KT 9999 FEW025 SCT030 12/11 Q1012
Conditions at: EGPF (GLASGOW AIRPORT , GB) observed 2350 UTC 19 August 2019
Temperature: 12.0°C (54°F)
Dewpoint: 11.0°C (52°F) [RH = 94%]
Pressure (altimeter): 29.88 inches Hg (1012.0 mb)
Winds: from the WSW (240 degrees) at 7 MPH (6 knots; 3.1 m/s)
Visibility: 6 or more miles (10+ km)
Ceiling: at least 12,000 feet AGL
Clouds: few clouds at 2500 feet AGL
scattered clouds at 3000 feet AGL
Weather: no significant weather observed at this time

METAR text: EGPF 192320Z AUTO 24006KT 9999 SCT028 BKN033 12/11 Q1012
Conditions at: EGPF (GLASGOW AIRPORT , GB) observed 2320 UTC 19 August 2019
Temperature: 12.0°C (54°F)
Dewpoint: 11.0°C (52°F) [RH = 94%]
Pressure (altimeter): 29.88 inches Hg (1012.0 mb)
Winds: from the WSW (240 degrees) at 7 MPH (6 knots; 3.1 m/s)
Visibility: 6 or more miles (10+ km)
Ceiling: 3300 feet AGL
Clouds: scattered clouds at 2800 feet AGL
broken clouds at 3300 feet AGL
Weather: no significant weather observed at this time

METAR text: EGPF 192250Z AUTO 26006KT 9999 SCT029 BKN036 13/11 Q1012
Conditions at: EGPF (GLASGOW AIRPORT , GB) observed 2250 UTC 19 August 2019
Temperature: 13.0°C (55°F)
Dewpoint: 11.0°C (52°F) [RH = 88%]
Pressure (altimeter): 29.88 inches Hg (1012.0 mb)
Winds: from the W (260 degrees) at 7 MPH (6 knots; 3.1 m/s)
Visibility: 6 or more miles (10+ km)
Ceiling: 3600 feet AGL
Clouds: scattered clouds at 2900 feet AGL
broken clouds at 3600 feet AGL
Weather: no significant weather observed at this time

METAR text: EGPF 192220Z AUTO 25005KT 9999 SCT036 12/11 Q1011
Conditions at: EGPF (GLASGOW AIRPORT , GB) observed 2220 UTC 19 August 2019
Temperature: 12.0°C (54°F)
Dewpoint: 11.0°C (52°F) [RH = 94%]
Pressure (altimeter): 29.85 inches Hg (1011.0 mb)
Winds: from the WSW (250 degrees) at 6 MPH (5 knots; 2.6 m/s)
Visibility: 6 or more miles (10+ km)
Ceiling: at least 12,000 feet AGL
Clouds: scattered clouds at 3600 feet AGL
Weather: no significant weather observed at this time

METAR text: EGPF 192150Z AUTO 24006KT 9999 FEW041 12/11 Q1011
Conditions at: EGPF (GLASGOW AIRPORT , GB) observed 2150 UTC 19 August 2019
Temperature: 12.0°C (54°F)
Dewpoint: 11.0°C (52°F) [RH = 94%]
Pressure (altimeter): 29.85 inches Hg (1011.0 mb)
Winds: from the WSW (240 degrees) at 7 MPH (6 knots; 3.1 m/s)
Visibility: 6 or more miles (10+ km)
Ceiling: at least 12,000 feet AGL
Clouds: few clouds at 4100 feet AGL
Weather: no significant weather observed at this time

METAR text: EGPF 192120Z AUTO 23008KT 9999 NCD 12/11 Q1010
Conditions at: EGPF (GLASGOW AIRPORT , GB) observed 2120 UTC 19 August 2019
Temperature: 12.0°C (54°F)
Dewpoint: 11.0°C (52°F) [RH = 94%]
Pressure (altimeter): 29.82 inches Hg (1010.0 mb)
Winds: from the SW (230 degrees) at 9 MPH (8 knots; 4.1 m/s)
Visibility: 6 or more miles (10+ km)
Ceiling: at least 12,000 feet AGL
Clouds: sky clear below 12,000 feet AGL
Weather: no significant weather observed at this time

METAR text: EGPF 192050Z AUTO 23009KT 9999 //////TCU 12/11 Q1010
Conditions at: EGPF (GLASGOW AIRPORT , GB) observed 2050 UTC 19 August 2019
Temperature: 12.0°C (54°F)
Dewpoint: 11.0°C (52°F) [RH = 94%]
Pressure (altimeter): 29.82 inches Hg (1010.0 mb)
Winds: from the SW (230 degrees) at 10 MPH (9 knots; 4.6 m/s)
Visibility: 6 or more miles (10+ km)
Ceiling: unknown
Clouds: missing
Weather: no significant weather observed at this time

METAR text: EGPF 192020Z AUTO 23010KT 9999 -RA SCT016/// BKN024/// BKN042/// //////TCU 13/12 Q1010
Conditions at: EGPF (GLASGOW AIRPORT , GB) observed 2020 UTC 19 August 2019
Temperature: 13.0°C (55°F)
Dewpoint: 12.0°C (54°F) [RH = 94%]
Pressure (altimeter): 29.82 inches Hg (1010.0 mb)
Winds: from the SW (230 degrees) at 12 MPH (10 knots; 5.1 m/s)
Visibility: 6 or more miles (10+ km)
Ceiling: 2400 feet AGL
Clouds: scattered clouds at 1600 feet AGL
broken clouds at 2400 feet AGL
broken clouds at 4200 feet AGL
Weather: -RA  (light rain)

METAR text: EGPF 191950Z AUTO 23011KT 9999 -RA BKN021/// BKN031/// OVC039/// //////TCU 13/12 Q1010
Conditions at: EGPF (GLASGOW AIRPORT , GB) observed 1950 UTC 19 August 2019
Temperature: 13.0°C (55°F)
Dewpoint: 12.0°C (54°F) [RH = 94%]
Pressure (altimeter): 29.82 inches Hg (1010.0 mb)
Winds: from the SW (230 degrees) at 13 MPH (11 knots; 5.7 m/s)
Visibility: 6 or more miles (10+ km)
Ceiling: 2100 feet AGL
Clouds: broken clouds at 2100 feet AGL
broken clouds at 3100 feet AGL
overcast cloud deck at 3900 feet AGL
Weather: -RA  (light rain)

METAR text: EGPF 191920Z AUTO 22012KT 9999 BKN021/// BKN028/// OVC043/// //////TCU 14/11 Q1009
Conditions at: EGPF (GLASGOW AIRPORT , GB) observed 1920 UTC 19 August 2019
Temperature: 14.0°C (57°F)
Dewpoint: 11.0°C (52°F) [RH = 82%]
Pressure (altimeter): 29.79 inches Hg (1009.0 mb)
Winds: from the SW (220 degrees) at 14 MPH (12 knots; 6.2 m/s)
Visibility: 6 or more miles (10+ km)
Ceiling: 2100 feet AGL
Clouds: broken clouds at 2100 feet AGL
broken clouds at 2800 feet AGL
overcast cloud deck at 4300 feet AGL
Weather: no significant weather observed at this time

METAR text: EGPF 191850Z AUTO 23012KT 9999 SCT033 BKN041 14/11 Q1009
Conditions at: EGPF (GLASGOW AIRPORT , GB) observed 1850 UTC 19 August 2019
Temperature: 14.0°C (57°F)
Dewpoint: 11.0°C (52°F) [RH = 82%]
Pressure (altimeter): 29.79 inches Hg (1009.0 mb)
Winds: from the SW (230 degrees) at 14 MPH (12 knots; 6.2 m/s)
Visibility: 6 or more miles (10+ km)
Ceiling: 4100 feet AGL
Clouds: scattered clouds at 3300 feet AGL
broken clouds at 4100 feet AGL
Weather: no significant weather observed at this time

METAR text: EGPF 191820Z AUTO 23014KT 9999 FEW039 BKN046 14/11 Q1009
Conditions at: EGPF (GLASGOW AIRPORT , GB) observed 1820 UTC 19 August 2019
Temperature: 14.0°C (57°F)
Dewpoint: 11.0°C (52°F) [RH = 82%]
Pressure (altimeter): 29.79 inches Hg (1009.0 mb)
Winds: from the SW (230 degrees) at 16 MPH (14 knots; 7.2 m/s)
Visibility: 6 or more miles (10+ km)
Ceiling: 4600 feet AGL
Clouds: few clouds at 3900 feet AGL
broken clouds at 4600 feet AGL
Weather: no significant weather observed at this time

METAR text: EGPF 191750Z AUTO 24015KT 9999 FEW029 SCT042 15/10 Q1009
Conditions at: EGPF (GLASGOW AIRPORT , GB) observed 1750 UTC 19 August 2019
Temperature: 15.0°C (59°F)
Dewpoint: 10.0°C (50°F) [RH = 72%]
Pressure (altimeter): 29.79 inches Hg (1009.0 mb)
Winds: from the WSW (240 degrees) at 17 MPH (15 knots; 7.7 m/s)
Visibility: 6 or more miles (10+ km)
Ceiling: at least 12,000 feet AGL
Clouds: few clouds at 2900 feet AGL
scattered clouds at 4200 feet AGL
Weather: no significant weather observed at this time

METAR text: EGPF 191720Z AUTO 25011KT 9999 SCT028/// SCT037/// //////TCU 15/10 Q1009
Conditions at: EGPF (GLASGOW AIRPORT , GB) observed 1720 UTC 19 August 2019
Temperature: 15.0°C (59°F)
Dewpoint: 10.0°C (50°F) [RH = 72%]
Pressure (altimeter): 29.79 inches Hg (1009.0 mb)
Winds: from the WSW (250 degrees) at 13 MPH (11 knots; 5.7 m/s)
Visibility: 6 or more miles (10+ km)
Ceiling: at least 12,000 feet AGL
Clouds: scattered clouds at 2800 feet AGL
scattered clouds at 3700 feet AGL
Weather: no significant weather observed at this time

METAR text: EGPF 191650Z AUTO 25011KT 9999 NCD 15/10 Q1008
Conditions at: EGPF (GLASGOW AIRPORT , GB) observed 1650 UTC 19 August 2019
Temperature: 15.0°C (59°F)
Dewpoint: 10.0°C (50°F) [RH = 72%]
Pressure (altimeter): 29.76 inches Hg (1008.0 mb)
Winds: from the WSW (250 degrees) at 13 MPH (11 knots; 5.7 m/s)
Visibility: 6 or more miles (10+ km)
Ceiling: at least 12,000 feet AGL
Clouds: sky clear below 12,000 feet AGL
Weather: no significant weather observed at this time

METAR text: EGPF 191620Z AUTO 25015KT 9999 FEW039 16/10 Q1008
Conditions at: EGPF (GLASGOW AIRPORT , GB) observed 1620 UTC 19 August 2019
Temperature: 16.0°C (61°F)
Dewpoint: 10.0°C (50°F) [RH = 68%]
Pressure (altimeter): 29.76 inches Hg (1008.0 mb)
Winds: from the WSW (250 degrees) at 17 MPH (15 knots; 7.7 m/s)
Visibility: 6 or more miles (10+ km)
Ceiling: at least 12,000 feet AGL
Clouds: few clouds at 3900 feet AGL
Weather: no significant weather observed at this time

METAR text: EGPF 191550Z AUTO 24018KT 9999 FEW031 17/10 Q1008
Conditions at: EGPF (GLASGOW AIRPORT , GB) observed 1550 UTC 19 August 2019
Temperature: 17.0°C (63°F)
Dewpoint: 10.0°C (50°F) [RH = 63%]
Pressure (altimeter): 29.76 inches Hg (1008.0 mb)
Winds: from the WSW (240 degrees) at 21 MPH (18 knots; 9.3 m/s)
Visibility: 6 or more miles (10+ km)
Ceiling: at least 12,000 feet AGL
Clouds: few clouds at 3100 feet AGL
Weather: no significant weather observed at this time

METAR text: EGPF 191520Z AUTO 24015KT 9999 SCT032 17/10 Q1008
Conditions at: EGPF (GLASGOW AIRPORT , GB) observed 1520 UTC 19 August 2019
Temperature: 17.0°C (63°F)
Dewpoint: 10.0°C (50°F) [RH = 63%]
Pressure (altimeter): 29.76 inches Hg (1008.0 mb)
Winds: from the WSW (240 degrees) at 17 MPH (15 knots; 7.7 m/s)
Visibility: 6 or more miles (10+ km)
Ceiling: at least 12,000 feet AGL
Clouds: scattered clouds at 3200 feet AGL
Weather: no significant weather observed at this time

METAR text: EGPF 191450Z AUTO 24016KT 9999 BKN031 17/10 Q1008
Conditions at: EGPF (GLASGOW AIRPORT , GB) observed 1450 UTC 19 August 2019
Temperature: 17.0°C (63°F)
Dewpoint: 10.0°C (50°F) [RH = 63%]
Pressure (altimeter): 29.76 inches Hg (1008.0 mb)
Winds: from the WSW (240 degrees) at 18 MPH (16 knots; 8.2 m/s)
Visibility: 6 or more miles (10+ km)
Ceiling: 3100 feet AGL
Clouds: broken clouds at 3100 feet AGL
Weather: no significant weather observed at this time

METAR text: EGPF 191420Z AUTO 25015KT 210V280 9999 FEW029/// //////CB 17/10 Q1008
Conditions at: EGPF (GLASGOW AIRPORT , GB) observed 1420 UTC 19 August 2019
Temperature: 17.0°C (63°F)
Dewpoint: 10.0°C (50°F) [RH = 63%]
Pressure (altimeter): 29.76 inches Hg (1008.0 mb)
Winds: from the WSW (250 degrees) at 17 MPH (15 knots; 7.7 m/s)
Visibility: 6 or more miles (10+ km)
Ceiling: at least 12,000 feet AGL
Clouds: few clouds at 2900 feet AGL
Weather: no significant weather observed at this time

METAR text: EGPF 191350Z AUTO 25014KT 9999 SCT030/// //////CB 17/10 Q1007
Conditions at: EGPF (GLASGOW AIRPORT , GB) observed 1350 UTC 19 August 2019
Temperature: 17.0°C (63°F)
Dewpoint: 10.0°C (50°F) [RH = 63%]
Pressure (altimeter): 29.73 inches Hg (1007.0 mb)
Winds: from the WSW (250 degrees) at 16 MPH (14 knots; 7.2 m/s)
Visibility: 6 or more miles (10+ km)
Ceiling: at least 12,000 feet AGL
Clouds: scattered clouds at 3000 feet AGL
Weather: no significant weather observed at this time

METAR text: EGPF 191320Z AUTO 23019KT 9999 FEW033/// //////CB 17/11 Q1007
Conditions at: EGPF (GLASGOW AIRPORT , GB) observed 1320 UTC 19 August 2019
Temperature: 17.0°C (63°F)
Dewpoint: 11.0°C (52°F) [RH = 68%]
Pressure (altimeter): 29.73 inches Hg (1007.0 mb)
Winds: from the SW (230 degrees) at 22 MPH (19 knots; 9.8 m/s)
Visibility: 6 or more miles (10+ km)
Ceiling: at least 12,000 feet AGL
Clouds: few clouds at 3300 feet AGL
Weather: no significant weather observed at this time

METAR text: EGPF 191250Z AUTO 25018KT 9999 SCT032/// //////CB 17/10 Q1007
Conditions at: EGPF (GLASGOW AIRPORT , GB) observed 1250 UTC 19 August 2019
Temperature: 17.0°C (63°F)
Dewpoint: 10.0°C (50°F) [RH = 63%]
Pressure (altimeter): 29.73 inches Hg (1007.0 mb)
Winds: from the WSW (250 degrees) at 21 MPH (18 knots; 9.3 m/s)
Visibility: 6 or more miles (10+ km)
Ceiling: at least 12,000 feet AGL
Clouds: scattered clouds at 3200 feet AGL
Weather: no significant weather observed at this time

METAR text: EGPF 191220Z AUTO 24016KT 9999 SCT027/// SCT043/// //////CB 16/10 Q1007
Conditions at: EGPF (GLASGOW AIRPORT , GB) observed 1220 UTC 19 August 2019
Temperature: 16.0°C (61°F)
Dewpoint: 10.0°C (50°F) [RH = 68%]
Pressure (altimeter): 29.73 inches Hg (1007.0 mb)
Winds: from the WSW (240 degrees) at 18 MPH (16 knots; 8.2 m/s)
Visibility: 6 or more miles (10+ km)
Ceiling: at least 12,000 feet AGL
Clouds: scattered clouds at 2700 feet AGL
scattered clouds at 4300 feet AGL
Weather: no significant weather observed at this time

METAR text: EGPF 191150Z AUTO 25016KT 9999 SCT026/// BKN031/// BKN041/// //////CB 16/10 Q1006
Conditions at: EGPF (GLASGOW AIRPORT , GB) observed 1150 UTC 19 August 2019
Temperature: 16.0°C (61°F)
Dewpoint: 10.0°C (50°F) [RH = 68%]
Pressure (altimeter): 29.70 inches Hg (1006.0 mb)
Winds: from the WSW (250 degrees) at 18 MPH (16 knots; 8.2 m/s)
Visibility: 6 or more miles (10+ km)
Ceiling: 3100 feet AGL
Clouds: scattered clouds at 2600 feet AGL
broken clouds at 3100 feet AGL
broken clouds at 4100 feet AGL
Weather: no significant weather observed at this time

METAR text: EGPF 191120Z AUTO 24017KT 9999 FEW029/// //////CB 16/11 Q1006
Conditions at: EGPF (GLASGOW AIRPORT , GB) observed 1120 UTC 19 August 2019
Temperature: 16.0°C (61°F)
Dewpoint: 11.0°C (52°F) [RH = 72%]
Pressure (altimeter): 29.70 inches Hg (1006.0 mb)
Winds: from the WSW (240 degrees) at 20 MPH (17 knots; 8.7 m/s)
Visibility: 6 or more miles (10+ km)
Ceiling: at least 12,000 feet AGL
Clouds: few clouds at 2900 feet AGL
Weather: no significant weather observed at this time

METAR text: EGPF 191050Z AUTO 25015KT 9999 SCT027/// BKN038/// BKN046/// //////CB 15/10 Q1006
Conditions at: EGPF (GLASGOW AIRPORT , GB) observed 1050 UTC 19 August 2019
Temperature: 15.0°C (59°F)
Dewpoint: 10.0°C (50°F) [RH = 72%]
Pressure (altimeter): 29.70 inches Hg (1006.0 mb)
Winds: from the WSW (250 degrees) at 17 MPH (15 knots; 7.7 m/s)
Visibility: 6 or more miles (10+ km)
Ceiling: 3800 feet AGL
Clouds: scattered clouds at 2700 feet AGL
broken clouds at 3800 feet AGL
broken clouds at 4600 feet AGL
Weather: no significant weather observed at this time

METAR text: EGPF 191020Z AUTO 25014KT 9999 BKN027/// BKN036/// //////CB 15/10 Q1006
Conditions at: EGPF (GLASGOW AIRPORT , GB) observed 1020 UTC 19 August 2019
Temperature: 15.0°C (59°F)
Dewpoint: 10.0°C (50°F) [RH = 72%]
Pressure (altimeter): 29.70 inches Hg (1006.0 mb)
Winds: from the WSW (250 degrees) at 16 MPH (14 knots; 7.2 m/s)
Visibility: 6 or more miles (10+ km)
Ceiling: 2700 feet AGL
Clouds: broken clouds at 2700 feet AGL
broken clouds at 3600 feet AGL
Weather: no significant weather observed at this time

METAR text: EGPF 190950Z AUTO 26014KT 9999 BKN026/// BKN048/// //////TCU 15/10 Q1005
Conditions at: EGPF (GLASGOW AIRPORT , GB) observed 0950 UTC 19 August 2019
Temperature: 15.0°C (59°F)
Dewpoint: 10.0°C (50°F) [RH = 72%]
Pressure (altimeter): 29.68 inches Hg (1005.0 mb)
Winds: from the W (260 degrees) at 16 MPH (14 knots; 7.2 m/s)
Visibility: 6 or more miles (10+ km)
Ceiling: 2600 feet AGL
Clouds: broken clouds at 2600 feet AGL
broken clouds at 4800 feet AGL
Weather: no significant weather observed at this time

METAR text: EGPF 190920Z AUTO 25010KT 9999 SCT025 BKN038 BKN048 14/11 Q1005
Conditions at: EGPF (GLASGOW AIRPORT , GB) observed 0920 UTC 19 August 2019
Temperature: 14.0°C (57°F)
Dewpoint: 11.0°C (52°F) [RH = 82%]
Pressure (altimeter): 29.68 inches Hg (1005.0 mb)
Winds: from the WSW (250 degrees) at 12 MPH (10 knots; 5.1 m/s)
Visibility: 6 or more miles (10+ km)
Ceiling: 3800 feet AGL
Clouds: scattered clouds at 2500 feet AGL
broken clouds at 3800 feet AGL
broken clouds at 4800 feet AGL
Weather: no significant weather observed at this time

Forecast for: EGPF (GLASGOW AIRPORT , GB)
Text: TAF EGPF 201656Z 2018/2118 23010KT 9999 SCT030
Forecast period: 1800 UTC 20 August 2019 to 1800 UTC 21 August 2019
Forecast type: FROM: standard forecast or significant change
Winds: from the SW (230 degrees) at 12 MPH (10 knots; 5.1 m/s)
Visibility: 6 or more miles 10+ km)
Ceiling: at least 12,000 feet AGL
Clouds: scattered clouds at 3000 feet AGL
Weather: no significant weather forecast for this period
Text: BECMG 2018/2021 VRB05KT
Forecast period: 1800 UTC 20 August 2019 to 0800 UTC 21 August 2019
Forecast type: BECOMING: Conditions expected to become as follows by 2100 UTC 20 August 2019
Winds: variable direction winds at 6 MPH (5 knots; 2.6 m/s)
Visibility: 6 or more miles 10+ km)
Ceiling: at least 12,000 feet AGL
Clouds: scattered clouds at 3000 feet AGL
Weather: no significant weather forecast for this period
Text: TEMPO 2023/2106 7000 RA BKN014
Forecast period: 2300 UTC 20 August 2019 to 0600 UTC 21 August 2019
Forecast type: TEMPORARY: The following changes expected for less than half the time period
Visibility: 4 miles (7 km)
Ceiling: 1400 feet AGL
Clouds: broken clouds at 1400 feet AGL
Weather: RA  (moderate rain)
Text: PROB30
Forecast period: 0000 to 0700 UTC 21 August 2019
Forecast type: TEMPORARY: The following changes expected for less than half the time period
Visibility: missing
Ceiling: 800 feet AGL
Clouds: broken clouds at 800 feet AGL
Weather: no significant weather forecast for this period
Text: TEMPO 2100/2107 BKN008
Forecast period: 0800 to 1800 UTC 21 August 2019
Forecast type: BECOMING: Conditions expected to become as follows by 1100 UTC 21 August 2019
Winds: from the SSW (210 degrees) at 17 MPH (15 knots; 7.7 m/s)
gusting to 29 MPH (25 knots; 12.9 m/s)
Visibility: 6 or more miles 10+ km)
Ceiling: at least 12,000 feet AGL
Clouds: scattered clouds at 3000 feet AGL
Weather: no significant weather forecast for this period
Text: BECMG 2108/2111 21015G25KT
Forecast period: 1300 to 1800 UTC 21 August 2019
Forecast type: TEMPORARY: The following changes expected for less than half the time period
Visibility: 4 miles (7 km)
Ceiling: unknown
Clouds: missing
Weather: RA  (moderate rain)
Text: TEMPO 2113/2118 7000 RA
Forecast period: 1500 to 1800 UTC 21 August 2019
Forecast type: TEMPORARY: The following changes expected for less than half the time period
Winds: from the SW (220 degrees) at 25 MPH (22 knots; 11.3 m/s)
gusting to 40 MPH (35 knots; 18.0 m/s)
Visibility: missing
Ceiling: unknown
Clouds: missing
Weather: no significant weather forecast for this period